sensor_id;sensor_type;location;lat;lon;timestamp;temperature;humidity
13052;DHT22;6592;47.484;9.726;2022-09-09T00:02:28;17.40;99.90
13052;DHT22;6592;47.484;9.726;2022-09-09T00:05:14;17.40;99.90
13052;DHT22;6592;47.484;9.726;2022-09-09T00:07:52;17.50;99.90
13052;DHT22;6592;47.484;9.726;2022-09-09T00:10:29;17.50;99.90
13052;DHT22;6592;47.484;9.726;2022-09-09T00:13:05;17.50;99.90
13052;DHT22;6592;47.484;9.726;2022-09-09T00:15:40;17.50;99.90
13052;DHT22;6592;47.484;9.726;2022-09-09T00:18:20;17.50;99.90
13052;DHT22;6592;47.484;9.726;2022-09-09T00:20:57;17.60;99.90
13052;DHT22;6592;47.484;9.726;2022-09-09T00:23:29;17.50;99.90
13052;DHT22;6592;47.484;9.726;2022-09-09T00:26:04;17.50;99.90
13052;DHT22;6592;47.484;9.726;2022-09-09T00:28:41;17.60;99.90
13052;DHT22;6592;47.484;9.726;2022-09-09T00:31:20;17.60;99.90
13052;DHT22;6592;47.484;9.726;2022-09-09T00:33:53;17.70;99.90
13052;DHT22;6592;47.484;9.726;2022-09-09T00:36:25;17.70;99.90
13052;DHT22;6592;47.484;9.726;2022-09-09T00:39:01;17.70;99.90
13052;DHT22;6592;47.484;9.726;2022-09-09T00:41:42;17.70;99.90
13052;DHT22;6592;47.484;9.726;2022-09-09T00:44:26;17.70;99.90
13052;DHT22;6592;47.484;9.726;2022-09-09T00:47:12;17.60;99.90
13052;DHT22;6592;47.484;9.726;2022-09-09T00:50:00;17.70;99.90
13052;DHT22;6592;47.484;9.726;2022-09-09T00:52:36;17.70;99.90
13052;DHT22;6592;47.484;9.726;2022-09-09T00:55:16;17.70;99.90
13052;DHT22;6592;47.484;9.726;2022-09-09T00:57:51;17.60;99.90
13052;DHT22;6592;47.484;9.726;2022-09-09T01:00:23;17.60;99.90
13052;DHT22;6592;47.484;9.726;2022-09-09T01:03:20;17.60;99.90
13052;DHT22;6592;47.484;9.726;2022-09-09T01:06:10;17.60;99.90
13052;DHT22;6592;47.484;9.726;2022-09-09T01:09:14;17.60;99.90
13052;DHT22;6592;47.484;9.726;2022-09-09T01:11:57;17.60;99.90
13052;DHT22;6592;47.484;9.726;2022-09-09T01:14:40;17.50;99.90
13052;DHT22;6592;47.484;9.726;2022-09-09T01:17:14;17.50;99.90
13052;DHT22;6592;47.484;9.726;2022-09-09T01:19:55;17.40;99.90
13052;DHT22;6592;47.484;9.726;2022-09-09T01:22:34;17.30;99.90
13052;DHT22;6592;47.484;9.726;2022-09-09T01:25:22;17.20;99.90
13052;DHT22;6592;47.484;9.726;2022-09-09T01:27:59;17.10;99.90
13052;DHT22;6592;47.484;9.726;2022-09-09T01:30:29;17.10;99.90
13052;DHT22;6592;47.484;9.726;2022-09-09T01:32:59;17.00;99.90
13052;DHT22;6592;47.484;9.726;2022-09-09T01:35:37;16.90;99.90
13052;DHT22;6592;47.484;9.726;2022-09-09T01:38:08;16.90;99.90
13052;DHT22;6592;47.484;9.726;2022-09-09T01:40:37;16.80;99.90
13052;DHT22;6592;47.484;9.726;2022-09-09T01:43:08;16.70;99.90
13052;DHT22;6592;47.484;9.726;2022-09-09T01:45:37;16.70;99.90
13052;DHT22;6592;47.484;9.726;2022-09-09T01:48:07;16.60;99.90
13052;DHT22;6592;47.484;9.726;2022-09-09T01:50:36;16.60;99.90
13052;DHT22;6592;47.484;9.726;2022-09-09T01:53:05;16.60;99.90
13052;DHT22;6592;47.484;9.726;2022-09-09T01:55:38;16.70;99.90
13052;DHT22;6592;47.484;9.726;2022-09-09T01:58:19;16.80;99.90
13052;DHT22;6592;47.484;9.726;2022-09-09T02:00:56;16.80;99.90
13052;DHT22;6592;47.484;9.726;2022-09-09T02:03:28;16.80;99.90
13052;DHT22;6592;47.484;9.726;2022-09-09T02:06:05;16.80;99.90
13052;DHT22;6592;47.484;9.726;2022-09-09T02:08:42;16.80;99.90
13052;DHT22;6592;47.484;9.726;2022-09-09T02:11:15;16.80;99.90
13052;DHT22;6592;47.484;9.726;2022-09-09T02:13:48;16.80;99.90
13052;DHT22;6592;47.484;9.726;2022-09-09T02:16:22;16.70;99.90
13052;DHT22;6592;47.484;9.726;2022-09-09T02:18:55;16.70;99.90
13052;DHT22;6592;47.484;9.726;2022-09-09T02:21:28;16.60;99.90
13052;DHT22;6592;47.484;9.726;2022-09-09T02:23:59;16.60;99.90
13052;DHT22;6592;47.484;9.726;2022-09-09T02:26:31;16.50;99.90
13052;DHT22;6592;47.484;9.726;2022-09-09T02:29:06;16.50;99.90
13052;DHT22;6592;47.484;9.726;2022-09-09T02:31:37;16.50;99.90
13052;DHT22;6592;47.484;9.726;2022-09-09T02:34:08;16.50;99.90
13052;DHT22;6592;47.484;9.726;2022-09-09T02:36:40;16.60;99.90
13052;DHT22;6592;47.484;9.726;2022-09-09T02:39:10;16.60;99.90
13052;DHT22;6592;47.484;9.726;2022-09-09T02:41:41;16.60;99.90
13052;DHT22;6592;47.484;9.726;2022-09-09T02:44:13;16.60;99.90
13052;DHT22;6592;47.484;9.726;2022-09-09T02:46:58;16.60;99.90
13052;DHT22;6592;47.484;9.726;2022-09-09T02:49:40;16.60;99.90
13052;DHT22;6592;47.484;9.726;2022-09-09T02:52:14;16.60;99.90
13052;DHT22;6592;47.484;9.726;2022-09-09T02:54:46;16.60;99.90
13052;DHT22;6592;47.484;9.726;2022-09-09T02:57:19;16.60;99.90
13052;DHT22;6592;47.484;9.726;2022-09-09T02:59:50;16.50;99.90
13052;DHT22;6592;47.484;9.726;2022-09-09T03:02:19;16.50;99.90
13052;DHT22;6592;47.484;9.726;2022-09-09T03:04:48;16.40;99.90
13052;DHT22;6592;47.484;9.726;2022-09-09T03:07:19;16.40;99.90
13052;DHT22;6592;47.484;9.726;2022-09-09T03:09:47;16.40;99.90
13052;DHT22;6592;47.484;9.726;2022-09-09T03:12:16;16.30;99.90
13052;DHT22;6592;47.484;9.726;2022-09-09T03:14:45;16.20;99.90
13052;DHT22;6592;47.484;9.726;2022-09-09T03:17:15;16.20;99.90
13052;DHT22;6592;47.484;9.726;2022-09-09T03:19:44;16.10;99.90
13052;DHT22;6592;47.484;9.726;2022-09-09T03:22:12;16.10;99.90
13052;DHT22;6592;47.484;9.726;2022-09-09T03:24:42;16.20;99.90
13052;DHT22;6592;47.484;9.726;2022-09-09T03:27:11;16.20;99.90
13052;DHT22;6592;47.484;9.726;2022-09-09T03:29:41;16.20;99.90
13052;DHT22;6592;47.484;9.726;2022-09-09T03:32:09;16.30;99.90
13052;DHT22;6592;47.484;9.726;2022-09-09T03:34:40;16.30;99.90
13052;DHT22;6592;47.484;9.726;2022-09-09T03:37:10;16.30;99.90
13052;DHT22;6592;47.484;9.726;2022-09-09T03:39:38;16.40;99.90
13052;DHT22;6592;47.484;9.726;2022-09-09T03:42:07;16.40;99.90
13052;DHT22;6592;47.484;9.726;2022-09-09T03:44:35;16.50;99.90
13052;DHT22;6592;47.484;9.726;2022-09-09T03:47:04;16.60;99.90
13052;DHT22;6592;47.484;9.726;2022-09-09T03:49:33;16.60;99.90
13052;DHT22;6592;47.484;9.726;2022-09-09T03:52:04;16.60;99.90
13052;DHT22;6592;47.484;9.726;2022-09-09T03:54:32;16.60;99.90
13052;DHT22;6592;47.484;9.726;2022-09-09T03:57:00;16.70;99.90
13052;DHT22;6592;47.484;9.726;2022-09-09T03:59:29;16.70;99.90
13052;DHT22;6592;47.484;9.726;2022-09-09T04:01:58;16.70;99.90
13052;DHT22;6592;47.484;9.726;2022-09-09T04:04:27;16.70;99.90
13052;DHT22;6592;47.484;9.726;2022-09-09T04:06:56;16.70;99.90
13052;DHT22;6592;47.484;9.726;2022-09-09T04:09:27;16.60;99.90
13052;DHT22;6592;47.484;9.726;2022-09-09T04:11:55;16.60;99.90
13052;DHT22;6592;47.484;9.726;2022-09-09T04:14:25;16.50;99.90
13052;DHT22;6592;47.484;9.726;2022-09-09T04:16:55;16.50;99.90
13052;DHT22;6592;47.484;9.726;2022-09-09T04:19:26;16.50;99.90
13052;DHT22;6592;47.484;9.726;2022-09-09T04:21:55;16.50;99.90
13052;DHT22;6592;47.484;9.726;2022-09-09T04:24:25;16.60;99.90
13052;DHT22;6592;47.484;9.726;2022-09-09T04:26:56;16.60;99.90
13052;DHT22;6592;47.484;9.726;2022-09-09T04:29:24;16.60;99.90
13052;DHT22;6592;47.484;9.726;2022-09-09T04:31:53;16.60;99.90
13052;DHT22;6592;47.484;9.726;2022-09-09T04:34:21;16.70;99.90
13052;DHT22;6592;47.484;9.726;2022-09-09T04:36:50;16.70;99.90
13052;DHT22;6592;47.484;9.726;2022-09-09T04:39:20;16.80;99.90
13052;DHT22;6592;47.484;9.726;2022-09-09T04:41:50;16.80;99.90
13052;DHT22;6592;47.484;9.726;2022-09-09T04:44:18;16.80;99.90
13052;DHT22;6592;47.484;9.726;2022-09-09T04:46:47;16.90;99.90
13052;DHT22;6592;47.484;9.726;2022-09-09T04:49:16;17.00;99.90
13052;DHT22;6592;47.484;9.726;2022-09-09T04:51:45;17.00;99.90
13052;DHT22;6592;47.484;9.726;2022-09-09T04:54:14;17.00;99.90
13052;DHT22;6592;47.484;9.726;2022-09-09T04:56:42;17.10;99.90
13052;DHT22;6592;47.484;9.726;2022-09-09T04:59:13;17.10;99.90
13052;DHT22;6592;47.484;9.726;2022-09-09T05:01:41;17.20;99.90
13052;DHT22;6592;47.484;9.726;2022-09-09T05:04:10;17.20;99.90
13052;DHT22;6592;47.484;9.726;2022-09-09T05:06:38;17.20;99.90
13052;DHT22;6592;47.484;9.726;2022-09-09T05:09:07;17.30;99.90
13052;DHT22;6592;47.484;9.726;2022-09-09T05:11:38;17.30;99.90
13052;DHT22;6592;47.484;9.726;2022-09-09T05:14:06;17.40;99.90
13052;DHT22;6592;47.484;9.726;2022-09-09T05:16:36;17.50;99.90
13052;DHT22;6592;47.484;9.726;2022-09-09T05:19:04;17.60;99.90
13052;DHT22;6592;47.484;9.726;2022-09-09T05:21:35;17.60;99.90
13052;DHT22;6592;47.484;9.726;2022-09-09T05:24:04;17.70;99.90
13052;DHT22;6592;47.484;9.726;2022-09-09T05:26:32;17.70;99.90
13052;DHT22;6592;47.484;9.726;2022-09-09T05:29:01;17.80;99.90
13052;DHT22;6592;47.484;9.726;2022-09-09T05:31:30;17.80;99.90
13052;DHT22;6592;47.484;9.726;2022-09-09T05:34:01;17.80;99.90
13052;DHT22;6592;47.484;9.726;2022-09-09T05:36:30;17.80;99.90
13052;DHT22;6592;47.484;9.726;2022-09-09T05:38:59;17.70;99.90
13052;DHT22;6592;47.484;9.726;2022-09-09T05:41:29;17.70;99.90
13052;DHT22;6592;47.484;9.726;2022-09-09T05:43:59;17.70;99.90
13052;DHT22;6592;47.484;9.726;2022-09-09T05:46:28;17.60;99.90
13052;DHT22;6592;47.484;9.726;2022-09-09T05:48:57;17.60;99.90
13052;DHT22;6592;47.484;9.726;2022-09-09T05:51:28;17.70;99.90
13052;DHT22;6592;47.484;9.726;2022-09-09T05:53:57;17.70;99.90
13052;DHT22;6592;47.484;9.726;2022-09-09T05:56:28;17.70;99.90
13052;DHT22;6592;47.484;9.726;2022-09-09T05:58:57;17.70;99.90
13052;DHT22;6592;47.484;9.726;2022-09-09T06:01:29;17.70;99.90
13052;DHT22;6592;47.484;9.726;2022-09-09T06:03:58;17.70;99.90
13052;DHT22;6592;47.484;9.726;2022-09-09T06:06:31;17.60;99.90
13052;DHT22;6592;47.484;9.726;2022-09-09T06:09:05;17.60;99.90
13052;DHT22;6592;47.484;9.726;2022-09-09T06:11:37;17.60;99.90
13052;DHT22;6592;47.484;9.726;2022-09-09T06:14:07;17.70;99.90
13052;DHT22;6592;47.484;9.726;2022-09-09T06:16:36;17.70;99.90
13052;DHT22;6592;47.484;9.726;2022-09-09T06:19:05;17.70;99.90
13052;DHT22;6592;47.484;9.726;2022-09-09T06:21:36;17.70;99.90
13052;DHT22;6592;47.484;9.726;2022-09-09T06:24:06;17.70;99.90
13052;DHT22;6592;47.484;9.726;2022-09-09T06:26:37;17.70;99.90
13052;DHT22;6592;47.484;9.726;2022-09-09T06:29:09;17.80;99.90
13052;DHT22;6592;47.484;9.726;2022-09-09T06:31:38;17.80;99.90
13052;DHT22;6592;47.484;9.726;2022-09-09T06:34:09;17.90;99.90
13052;DHT22;6592;47.484;9.726;2022-09-09T06:36:39;17.90;99.90
13052;DHT22;6592;47.484;9.726;2022-09-09T06:39:08;18.00;99.90
13052;DHT22;6592;47.484;9.726;2022-09-09T06:41:41;18.00;99.90
13052;DHT22;6592;47.484;9.726;2022-09-09T06:44:14;18.10;99.90
13052;DHT22;6592;47.484;9.726;2022-09-09T06:46:43;18.00;99.90
13052;DHT22;6592;47.484;9.726;2022-09-09T06:49:14;18.00;99.90
13052;DHT22;6592;47.484;9.726;2022-09-09T06:51:45;18.10;99.90
13052;DHT22;6592;47.484;9.726;2022-09-09T06:54:13;18.10;99.90
13052;DHT22;6592;47.484;9.726;2022-09-09T06:56:42;18.10;99.90
13052;DHT22;6592;47.484;9.726;2022-09-09T06:59:12;18.20;99.90
13052;DHT22;6592;47.484;9.726;2022-09-09T07:01:42;18.20;99.90
13052;DHT22;6592;47.484;9.726;2022-09-09T07:04:11;18.20;99.90
13052;DHT22;6592;47.484;9.726;2022-09-09T07:06:42;18.20;99.90
13052;DHT22;6592;47.484;9.726;2022-09-09T07:09:14;18.20;99.90
13052;DHT22;6592;47.484;9.726;2022-09-09T07:11:44;18.20;99.90
13052;DHT22;6592;47.484;9.726;2022-09-09T07:14:14;18.10;99.90
13052;DHT22;6592;47.484;9.726;2022-09-09T07:16:44;18.20;99.90
13052;DHT22;6592;47.484;9.726;2022-09-09T07:19:14;18.10;99.90
13052;DHT22;6592;47.484;9.726;2022-09-09T07:21:43;18.10;99.90
13052;DHT22;6592;47.484;9.726;2022-09-09T07:24:14;18.10;99.90
13052;DHT22;6592;47.484;9.726;2022-09-09T07:26:43;18.10;99.90
13052;DHT22;6592;47.484;9.726;2022-09-09T07:29:12;18.10;99.90
13052;DHT22;6592;47.484;9.726;2022-09-09T07:31:47;18.10;99.90
13052;DHT22;6592;47.484;9.726;2022-09-09T07:34:16;18.20;99.90
13052;DHT22;6592;47.484;9.726;2022-09-09T07:36:46;18.20;99.90
13052;DHT22;6592;47.484;9.726;2022-09-09T07:39:17;18.30;99.90
13052;DHT22;6592;47.484;9.726;2022-09-09T07:41:47;18.30;99.90
13052;DHT22;6592;47.484;9.726;2022-09-09T07:44:17;18.20;99.90
13052;DHT22;6592;47.484;9.726;2022-09-09T07:46:48;18.30;99.90
13052;DHT22;6592;47.484;9.726;2022-09-09T07:49:17;18.30;99.90
13052;DHT22;6592;47.484;9.726;2022-09-09T07:51:55;18.40;99.90
13052;DHT22;6592;47.484;9.726;2022-09-09T07:54:25;18.40;99.90
13052;DHT22;6592;47.484;9.726;2022-09-09T07:56:54;18.40;99.90
13052;DHT22;6592;47.484;9.726;2022-09-09T07:59:23;18.40;99.90
13052;DHT22;6592;47.484;9.726;2022-09-09T08:01:52;18.50;99.90
13052;DHT22;6592;47.484;9.726;2022-09-09T08:04:22;18.50;99.90
13052;DHT22;6592;47.484;9.726;2022-09-09T08:06:54;18.40;99.90
13052;DHT22;6592;47.484;9.726;2022-09-09T08:09:24;18.50;99.90
13052;DHT22;6592;47.484;9.726;2022-09-09T08:11:56;18.40;99.90
13052;DHT22;6592;47.484;9.726;2022-09-09T08:14:25;18.40;99.90
13052;DHT22;6592;47.484;9.726;2022-09-09T08:16:54;18.40;99.90
13052;DHT22;6592;47.484;9.726;2022-09-09T08:19:24;18.40;99.90
13052;DHT22;6592;47.484;9.726;2022-09-09T08:21:53;18.40;99.90
13052;DHT22;6592;47.484;9.726;2022-09-09T08:24:21;18.30;99.90
13052;DHT22;6592;47.484;9.726;2022-09-09T08:26:51;18.20;99.90
13052;DHT22;6592;47.484;9.726;2022-09-09T08:29:20;18.20;99.90
13052;DHT22;6592;47.484;9.726;2022-09-09T08:31:50;18.20;99.90
13052;DHT22;6592;47.484;9.726;2022-09-09T08:34:20;18.10;99.90
13052;DHT22;6592;47.484;9.726;2022-09-09T08:36:50;18.10;99.90
13052;DHT22;6592;47.484;9.726;2022-09-09T08:39:20;18.10;99.90
13052;DHT22;6592;47.484;9.726;2022-09-09T08:42:10;18.10;99.90
13052;DHT22;6592;47.484;9.726;2022-09-09T08:44:51;18.20;99.90
13052;DHT22;6592;47.484;9.726;2022-09-09T08:47:31;18.20;99.90
13052;DHT22;6592;47.484;9.726;2022-09-09T08:50:11;18.10;99.90
13052;DHT22;6592;47.484;9.726;2022-09-09T08:52:50;18.10;99.90
13052;DHT22;6592;47.484;9.726;2022-09-09T08:55:28;18.10;99.90
13052;DHT22;6592;47.484;9.726;2022-09-09T08:58:04;18.00;99.90
13052;DHT22;6592;47.484;9.726;2022-09-09T09:00:43;18.00;99.90
13052;DHT22;6592;47.484;9.726;2022-09-09T09:03:19;18.00;99.90
13052;DHT22;6592;47.484;9.726;2022-09-09T09:05:57;17.90;99.90
13052;DHT22;6592;47.484;9.726;2022-09-09T09:08:33;17.80;99.90
13052;DHT22;6592;47.484;9.726;2022-09-09T09:11:05;17.70;99.90
13052;DHT22;6592;47.484;9.726;2022-09-09T09:13:45;17.70;99.90
13052;DHT22;6592;47.484;9.726;2022-09-09T09:16:22;17.60;99.90
13052;DHT22;6592;47.484;9.726;2022-09-09T09:18:52;17.50;99.90
13052;DHT22;6592;47.484;9.726;2022-09-09T09:21:29;17.40;99.90
13052;DHT22;6592;47.484;9.726;2022-09-09T09:24:06;17.50;99.90
13052;DHT22;6592;47.484;9.726;2022-09-09T09:26:47;17.40;99.90
13052;DHT22;6592;47.484;9.726;2022-09-09T09:29:19;17.30;99.90
13052;DHT22;6592;47.484;9.726;2022-09-09T09:31:52;17.30;99.90
13052;DHT22;6592;47.484;9.726;2022-09-09T09:34:22;17.20;99.90
13052;DHT22;6592;47.484;9.726;2022-09-09T09:36:54;17.10;99.90
13052;DHT22;6592;47.484;9.726;2022-09-09T09:39:26;17.10;99.90
13052;DHT22;6592;47.484;9.726;2022-09-09T09:42:17;17.10;99.90
13052;DHT22;6592;47.484;9.726;2022-09-09T09:44:51;17.00;99.90
13052;DHT22;6592;47.484;9.726;2022-09-09T09:47:21;17.00;99.90
13052;DHT22;6592;47.484;9.726;2022-09-09T09:49:54;17.00;99.90
13052;DHT22;6592;47.484;9.726;2022-09-09T09:52:24;17.00;99.90
13052;DHT22;6592;47.484;9.726;2022-09-09T09:54:53;17.00;99.90
13052;DHT22;6592;47.484;9.726;2022-09-09T09:57:26;17.00;99.90
13052;DHT22;6592;47.484;9.726;2022-09-09T10:00:13;17.00;99.90
13052;DHT22;6592;47.484;9.726;2022-09-09T10:02:43;17.00;99.90
13052;DHT22;6592;47.484;9.726;2022-09-09T10:05:16;17.00;99.90
13052;DHT22;6592;47.484;9.726;2022-09-09T10:08:03;17.00;99.90
13052;DHT22;6592;47.484;9.726;2022-09-09T10:10:42;17.10;99.90
13052;DHT22;6592;47.484;9.726;2022-09-09T10:13:19;17.20;99.90
13052;DHT22;6592;47.484;9.726;2022-09-09T10:16:03;17.20;99.90
13052;DHT22;6592;47.484;9.726;2022-09-09T10:18:45;17.30;99.90
13052;DHT22;6592;47.484;9.726;2022-09-09T10:21:24;17.30;99.90
13052;DHT22;6592;47.484;9.726;2022-09-09T10:27:03;17.50;99.90
13052;DHT22;6592;47.484;9.726;2022-09-09T10:29:47;18.00;99.90
13052;DHT22;6592;47.484;9.726;2022-09-09T10:32:36;18.80;99.90
13052;DHT22;6592;47.484;9.726;2022-09-09T10:35:12;19.30;99.90
13052;DHT22;6592;47.484;9.726;2022-09-09T10:37:50;19.70;99.90
13052;DHT22;6592;47.484;9.726;2022-09-09T10:40:30;19.90;99.90
13052;DHT22;6592;47.484;9.726;2022-09-09T10:43:07;20.10;99.90
13052;DHT22;6592;47.484;9.726;2022-09-09T10:45:45;20.10;99.90
13052;DHT22;6592;47.484;9.726;2022-09-09T10:48:31;20.20;99.90
13052;DHT22;6592;47.484;9.726;2022-09-09T10:51:19;20.80;99.90
13052;DHT22;6592;47.484;9.726;2022-09-09T10:54:01;21.40;99.90
13052;DHT22;6592;47.484;9.726;2022-09-09T10:56:35;22.00;99.90
13052;DHT22;6592;47.484;9.726;2022-09-09T10:59:07;23.00;99.90
13052;DHT22;6592;47.484;9.726;2022-09-09T11:01:42;24.10;99.90
13052;DHT22;6592;47.484;9.726;2022-09-09T11:04:19;25.60;99.90
13052;DHT22;6592;47.484;9.726;2022-09-09T11:06:53;26.60;99.90
13052;DHT22;6592;47.484;9.726;2022-09-09T11:09:25;27.20;99.90
13052;DHT22;6592;47.484;9.726;2022-09-09T11:11:56;27.40;99.90
13052;DHT22;6592;47.484;9.726;2022-09-09T11:14:29;27.30;99.90
13052;DHT22;6592;47.484;9.726;2022-09-09T11:17:06;27.10;99.90
13052;DHT22;6592;47.484;9.726;2022-09-09T11:19:40;26.90;99.90
13052;DHT22;6592;47.484;9.726;2022-09-09T11:22:17;27.60;99.90
13052;DHT22;6592;47.484;9.726;2022-09-09T11:24:50;28.40;99.90
13052;DHT22;6592;47.484;9.726;2022-09-09T11:27:25;28.90;99.90
13052;DHT22;6592;47.484;9.726;2022-09-09T11:30:15;29.40;99.90
13052;DHT22;6592;47.484;9.726;2022-09-09T11:33:17;29.30;99.90
13052;DHT22;6592;47.484;9.726;2022-09-09T11:36:08;29.50;99.90
13052;DHT22;6592;47.484;9.726;2022-09-09T11:38:45;28.80;99.90
13052;DHT22;6592;47.484;9.726;2022-09-09T11:41:15;28.70;99.90
13052;DHT22;6592;47.484;9.726;2022-09-09T11:43:49;28.40;99.90
13052;DHT22;6592;47.484;9.726;2022-09-09T11:46:22;27.60;99.90
13052;DHT22;6592;47.484;9.726;2022-09-09T11:48:59;27.40;99.90
13052;DHT22;6592;47.484;9.726;2022-09-09T11:51:30;27.00;99.90
13052;DHT22;6592;47.484;9.726;2022-09-09T11:54:01;26.20;99.90
13052;DHT22;6592;47.484;9.726;2022-09-09T11:56:32;25.70;99.90
13052;DHT22;6592;47.484;9.726;2022-09-09T11:59:03;25.20;99.90
13052;DHT22;6592;47.484;9.726;2022-09-09T12:01:39;24.50;99.90
13052;DHT22;6592;47.484;9.726;2022-09-09T12:04:21;23.80;99.90
13052;DHT22;6592;47.484;9.726;2022-09-09T12:07:03;22.50;99.90
13052;DHT22;6592;47.484;9.726;2022-09-09T12:09:44;22.10;99.90
13052;DHT22;6592;47.484;9.726;2022-09-09T12:12:30;21.90;99.90
13052;DHT22;6592;47.484;9.726;2022-09-09T12:15:24;21.70;99.90
13052;DHT22;6592;47.484;9.726;2022-09-09T12:17:56;21.70;99.90
13052;DHT22;6592;47.484;9.726;2022-09-09T12:20:34;21.90;99.90
13052;DHT22;6592;47.484;9.726;2022-09-09T12:23:42;21.90;99.90
13052;DHT22;6592;47.484;9.726;2022-09-09T12:26:30;22.00;99.90
13052;DHT22;6592;47.484;9.726;2022-09-09T12:29:06;22.30;99.90
13052;DHT22;6592;47.484;9.726;2022-09-09T12:31:44;22.80;99.90
13052;DHT22;6592;47.484;9.726;2022-09-09T12:34:20;23.00;99.90
13052;DHT22;6592;47.484;9.726;2022-09-09T12:36:58;23.40;99.90
13052;DHT22;6592;47.484;9.726;2022-09-09T12:39:34;23.70;99.90
13052;DHT22;6592;47.484;9.726;2022-09-09T12:42:04;23.60;99.90
13052;DHT22;6592;47.484;9.726;2022-09-09T12:44:33;23.70;99.90
13052;DHT22;6592;47.484;9.726;2022-09-09T12:47:03;23.40;99.90
13052;DHT22;6592;47.484;9.726;2022-09-09T12:49:35;23.10;99.90
13052;DHT22;6592;47.484;9.726;2022-09-09T12:52:07;23.10;99.90
13052;DHT22;6592;47.484;9.726;2022-09-09T12:54:44;23.00;99.90
13052;DHT22;6592;47.484;9.726;2022-09-09T12:57:14;22.80;99.90
13052;DHT22;6592;47.484;9.726;2022-09-09T12:59:44;22.60;99.90
13052;DHT22;6592;47.484;9.726;2022-09-09T13:02:21;22.60;99.90
13052;DHT22;6592;47.484;9.726;2022-09-09T13:04:50;22.80;99.90
13052;DHT22;6592;47.484;9.726;2022-09-09T13:07:20;22.90;99.90
13052;DHT22;6592;47.484;9.726;2022-09-09T13:09:51;22.60;99.90
13052;DHT22;6592;47.484;9.726;2022-09-09T13:12:21;22.50;99.90
13052;DHT22;6592;47.484;9.726;2022-09-09T13:14:52;22.40;99.90
13052;DHT22;6592;47.484;9.726;2022-09-09T13:17:24;22.40;99.90
13052;DHT22;6592;47.484;9.726;2022-09-09T13:19:54;22.60;99.90
13052;DHT22;6592;47.484;9.726;2022-09-09T13:22:29;23.00;99.90
13052;DHT22;6592;47.484;9.726;2022-09-09T13:25:04;23.20;99.90
13052;DHT22;6592;47.484;9.726;2022-09-09T13:27:35;23.20;99.90
13052;DHT22;6592;47.484;9.726;2022-09-09T13:30:20;23.80;99.90
13052;DHT22;6592;47.484;9.726;2022-09-09T13:33:05;24.60;99.90
13052;DHT22;6592;47.484;9.726;2022-09-09T13:35:35;25.50;99.90
13052;DHT22;6592;47.484;9.726;2022-09-09T13:38:08;25.80;99.90
13052;DHT22;6592;47.484;9.726;2022-09-09T13:40:39;26.10;99.90
13052;DHT22;6592;47.484;9.726;2022-09-09T13:43:21;26.60;99.90
13052;DHT22;6592;47.484;9.726;2022-09-09T13:45:55;27.10;99.90
13052;DHT22;6592;47.484;9.726;2022-09-09T13:48:25;27.80;99.90
13052;DHT22;6592;47.484;9.726;2022-09-09T13:50:58;28.10;99.90
13052;DHT22;6592;47.484;9.726;2022-09-09T13:53:27;28.30;99.90
13052;DHT22;6592;47.484;9.726;2022-09-09T13:55:59;28.00;99.90
13052;DHT22;6592;47.484;9.726;2022-09-09T13:58:28;28.00;99.90
13052;DHT22;6592;47.484;9.726;2022-09-09T14:00:56;27.80;99.90
13052;DHT22;6592;47.484;9.726;2022-09-09T14:03:25;27.80;99.90
13052;DHT22;6592;47.484;9.726;2022-09-09T14:05:54;28.30;99.90
13052;DHT22;6592;47.484;9.726;2022-09-09T14:08:25;28.40;99.90
13052;DHT22;6592;47.484;9.726;2022-09-09T14:10:55;28.20;99.90
13052;DHT22;6592;47.484;9.726;2022-09-09T14:13:28;28.40;99.90
13052;DHT22;6592;47.484;9.726;2022-09-09T14:15:57;29.10;99.90
13052;DHT22;6592;47.484;9.726;2022-09-09T14:18:25;29.40;97.30
13052;DHT22;6592;47.484;9.726;2022-09-09T14:20:54;29.40;98.40
13052;DHT22;6592;47.484;9.726;2022-09-09T14:23:24;29.00;96.50
13052;DHT22;6592;47.484;9.726;2022-09-09T14:25:52;29.20;96.70
13052;DHT22;6592;47.484;9.726;2022-09-09T14:28:22;29.80;94.50
13052;DHT22;6592;47.484;9.726;2022-09-09T14:31:13;30.00;94.70
13052;DHT22;6592;47.484;9.726;2022-09-09T14:33:41;30.40;95.70
13052;DHT22;6592;47.484;9.726;2022-09-09T14:36:11;30.80;92.00
13052;DHT22;6592;47.484;9.726;2022-09-09T14:38:40;31.10;91.30
13052;DHT22;6592;47.484;9.726;2022-09-09T14:41:10;31.20;89.30
13052;DHT22;6592;47.484;9.726;2022-09-09T14:43:40;31.10;89.90
13052;DHT22;6592;47.484;9.726;2022-09-09T14:46:09;31.10;86.40
13052;DHT22;6592;47.484;9.726;2022-09-09T14:48:39;31.20;86.80
13052;DHT22;6592;47.484;9.726;2022-09-09T14:51:10;31.20;85.50
13052;DHT22;6592;47.484;9.726;2022-09-09T14:53:40;31.10;84.70
13052;DHT22;6592;47.484;9.726;2022-09-09T14:56:11;30.60;88.60
13052;DHT22;6592;47.484;9.726;2022-09-09T14:58:39;30.60;86.30
13052;DHT22;6592;47.484;9.726;2022-09-09T15:01:10;30.00;89.50
13052;DHT22;6592;47.484;9.726;2022-09-09T15:03:42;29.90;85.90
13052;DHT22;6592;47.484;9.726;2022-09-09T15:06:13;29.90;89.30
13052;DHT22;6592;47.484;9.726;2022-09-09T15:08:43;30.00;87.80
13052;DHT22;6592;47.484;9.726;2022-09-09T15:11:13;29.00;87.50
13052;DHT22;6592;47.484;9.726;2022-09-09T15:13:44;28.30;89.90
13052;DHT22;6592;47.484;9.726;2022-09-09T15:16:16;28.40;89.20
13052;DHT22;6592;47.484;9.726;2022-09-09T15:18:50;28.40;87.60
13052;DHT22;6592;47.484;9.726;2022-09-09T15:21:21;28.40;87.30
13052;DHT22;6592;47.484;9.726;2022-09-09T15:23:51;27.60;89.20
13052;DHT22;6592;47.484;9.726;2022-09-09T15:26:19;26.70;90.60
13052;DHT22;6592;47.484;9.726;2022-09-09T15:28:49;26.00;91.20
13052;DHT22;6592;47.484;9.726;2022-09-09T15:31:19;25.20;92.70
13052;DHT22;6592;47.484;9.726;2022-09-09T15:33:50;24.60;94.30
13052;DHT22;6592;47.484;9.726;2022-09-09T15:36:20;24.10;95.90
13052;DHT22;6592;47.484;9.726;2022-09-09T15:38:50;23.90;96.10
13052;DHT22;6592;47.484;9.726;2022-09-09T15:41:21;23.80;96.50
13052;DHT22;6592;47.484;9.726;2022-09-09T15:43:51;23.80;97.50
13052;DHT22;6592;47.484;9.726;2022-09-09T15:46:29;23.70;97.70
13052;DHT22;6592;47.484;9.726;2022-09-09T15:49:06;23.60;98.70
13052;DHT22;6592;47.484;9.726;2022-09-09T15:51:38;23.60;98.40
13052;DHT22;6592;47.484;9.726;2022-09-09T15:54:11;23.50;98.60
13052;DHT22;6592;47.484;9.726;2022-09-09T15:56:41;23.50;99.20
13052;DHT22;6592;47.484;9.726;2022-09-09T15:59:11;23.50;99.00
13052;DHT22;6592;47.484;9.726;2022-09-09T16:01:42;23.30;99.90
13052;DHT22;6592;47.484;9.726;2022-09-09T16:04:12;23.10;99.90
13052;DHT22;6592;47.484;9.726;2022-09-09T16:06:42;22.70;99.90
13052;DHT22;6592;47.484;9.726;2022-09-09T16:09:11;22.40;99.90
13052;DHT22;6592;47.484;9.726;2022-09-09T16:11:39;22.40;99.90
13052;DHT22;6592;47.484;9.726;2022-09-09T16:14:08;22.60;99.90
13052;DHT22;6592;47.484;9.726;2022-09-09T16:16:38;22.80;99.90
13052;DHT22;6592;47.484;9.726;2022-09-09T16:19:09;23.00;99.90
13052;DHT22;6592;47.484;9.726;2022-09-09T16:21:42;23.00;99.90
13052;DHT22;6592;47.484;9.726;2022-09-09T16:24:13;22.90;99.90
13052;DHT22;6592;47.484;9.726;2022-09-09T16:26:46;22.70;99.90